METAR de aeropuertos de Murcia y cercanos

 

LEAL - Alicante
Actualización: 23/01/2019 08:30
Despejado
Despejado
 Viento del OSO
Viento: OSO 13 km/h
Temperatura: 10°C
Wind Chill: 8°C
Rocío: 3°C
Humedad: 62%
Barómetro: 1007 hPa
Resumen: Despejado
Visibilidad: greater than 10 km
2019/01/23 07:30 LEAL 230730Z 24007KT 210V270 CAVOK 10/03 Q1007 NOSIG
LEAB - Albacete
Actualización: 23/01/2019 08:00
Few Clouds
Few Clouds
 Viento del O
Viento: O 30 km/h
Temperatura: 5°C
Wind Chill: 0°C
Rocío: 3°C
Humedad: 87%
Barómetro: 1008 hPa
Nubosidad: Few Clouds
Visibilidad: 10 km
Cloud details: Few Clouds 1433 m
2019/01/23 07:00 LEAB 230700Z 27016KT 9999 FEW047 05/03 Q1008 NOSIG
LEAM - Almería
Actualización: 23/01/2019 08:30
Despejado
Despejado
 Viento del NO
Viento: NO 30 km/h
Temperatura: 14°C
Rocío: 2°C
Humedad: 44%
Barómetro: 1010 hPa
Resumen: Despejado
Visibilidad: greater than 10 km
2019/01/23 07:30 LEAM 230730Z 31016KT CAVOK 14/02 Q1010
 
LERI - Murcia/Alcantarilla
Actualización: 23/01/2019 08:00
Despejado
Despejado
 Viento del varies
Viento: varies 4 km/h
Temperatura: 5°C
Rocío: 2°C
Humedad: 81%
Barómetro: 1008 hPa
Resumen: Despejado
Visibilidad: greater than 10 km
2019/01/23 07:00 LERI 230700Z VRB02KT CAVOK 05/02 Q1008 NOSIG
LELC - Murcia/San Javier
Actualización: 23/01/2019 08:30
Despejado
Despejado
 Viento del O
Viento: O 22 km/h
Temperatura: 11°C
Rocío: 3°C
Humedad: 58%
Barómetro: 1008 hPa
Resumen: Despejado
Visibilidad: greater than 10 km
2019/01/23 07:30 LELC 230730Z 27012KT CAVOK 11/03 Q1008 NOSIG

La estación de MeteoMurcia.com, publica sus datos en los siguientes proyectos:

Meteoclimatic www.awekas.at

W3Counter
Web Analytics